sensor_id;sensor_type;location;lat;lon;timestamp;temperature;humidity
38458;DHT22;24239;48.058;10.486;2022-09-12T00:00:00;9.20;99.90
38458;DHT22;24239;48.058;10.486;2022-09-12T00:02:26;9.20;99.90
38458;DHT22;24239;48.058;10.486;2022-09-12T00:04:52;9.20;99.90
38458;DHT22;24239;48.058;10.486;2022-09-12T00:07:17;9.20;99.90
38458;DHT22;24239;48.058;10.486;2022-09-12T00:09:43;9.10;99.90
38458;DHT22;24239;48.058;10.486;2022-09-12T00:12:09;9.10;99.90
38458;DHT22;24239;48.058;10.486;2022-09-12T00:14:38;9.00;99.90
38458;DHT22;24239;48.058;10.486;2022-09-12T00:17:04;9.00;99.90
38458;DHT22;24239;48.058;10.486;2022-09-12T00:19:29;9.10;99.90
38458;DHT22;24239;48.058;10.486;2022-09-12T00:21:58;9.00;99.90
38458;DHT22;24239;48.058;10.486;2022-09-12T00:24:23;9.00;99.90
38458;DHT22;24239;48.058;10.486;2022-09-12T00:26:49;9.00;99.90
38458;DHT22;24239;48.058;10.486;2022-09-12T00:29:17;9.00;99.90
38458;DHT22;24239;48.058;10.486;2022-09-12T00:31:43;9.00;99.90
38458;DHT22;24239;48.058;10.486;2022-09-12T00:34:10;8.90;99.90
38458;DHT22;24239;48.058;10.486;2022-09-12T00:36:37;8.90;99.90
38458;DHT22;24239;48.058;10.486;2022-09-12T00:39:03;8.80;99.90
38458;DHT22;24239;48.058;10.486;2022-09-12T00:41:36;8.90;99.90
38458;DHT22;24239;48.058;10.486;2022-09-12T00:49:20;8.80;99.90
38458;DHT22;24239;48.058;10.486;2022-09-12T00:51:53;8.70;99.90
38458;DHT22;24239;48.058;10.486;2022-09-12T00:54:23;8.80;99.90
38458;DHT22;24239;48.058;10.486;2022-09-12T00:56:55;8.70;99.90
38458;DHT22;24239;48.058;10.486;2022-09-12T00:59:26;8.70;99.90
38458;DHT22;24239;48.058;10.486;2022-09-12T01:01:55;8.70;99.90
38458;DHT22;24239;48.058;10.486;2022-09-12T01:04:22;8.70;99.90
38458;DHT22;24239;48.058;10.486;2022-09-12T01:06:51;8.70;99.90
38458;DHT22;24239;48.058;10.486;2022-09-12T01:09:19;8.80;99.90
38458;DHT22;24239;48.058;10.486;2022-09-12T01:11:47;8.70;99.90
38458;DHT22;24239;48.058;10.486;2022-09-12T01:14:14;8.70;99.90
38458;DHT22;24239;48.058;10.486;2022-09-12T01:16:41;8.60;99.90
38458;DHT22;24239;48.058;10.486;2022-09-12T01:22:49;8.60;99.90
38458;DHT22;24239;48.058;10.486;2022-09-12T01:31:15;8.60;99.90
38458;DHT22;24239;48.058;10.486;2022-09-12T01:38:47;8.50;99.90
38458;DHT22;24239;48.058;10.486;2022-09-12T01:46:46;8.40;99.90
38458;DHT22;24239;48.058;10.486;2022-09-12T01:54:31;8.40;99.90
38458;DHT22;24239;48.058;10.486;2022-09-12T01:57:02;8.20;99.90
38458;DHT22;24239;48.058;10.486;2022-09-12T01:59:41;8.40;99.90
38458;DHT22;24239;48.058;10.486;2022-09-12T02:02:15;8.30;99.90
38458;DHT22;24239;48.058;10.486;2022-09-12T02:05:00;8.20;99.90
38458;DHT22;24239;48.058;10.486;2022-09-12T02:07:37;8.20;99.90
38458;DHT22;24239;48.058;10.486;2022-09-12T02:10:20;8.20;99.90
38458;DHT22;24239;48.058;10.486;2022-09-12T02:12:57;8.20;99.90
38458;DHT22;24239;48.058;10.486;2022-09-12T02:15:41;8.10;99.90
38458;DHT22;24239;48.058;10.486;2022-09-12T02:18:13;8.10;99.90
38458;DHT22;24239;48.058;10.486;2022-09-12T02:20:42;8.10;99.90
38458;DHT22;24239;48.058;10.486;2022-09-12T02:23:19;8.10;99.90
38458;DHT22;24239;48.058;10.486;2022-09-12T02:25:48;8.00;99.90
38458;DHT22;24239;48.058;10.486;2022-09-12T02:28:37;8.00;99.90
38458;DHT22;24239;48.058;10.486;2022-09-12T02:37:15;8.00;99.90
38458;DHT22;24239;48.058;10.486;2022-09-12T02:39:32;7.90;99.90
38458;DHT22;24239;48.058;10.486;2022-09-12T02:41:59;7.90;99.90
38458;DHT22;24239;48.058;10.486;2022-09-12T02:44:27;7.90;99.90
38458;DHT22;24239;48.058;10.486;2022-09-12T02:46:58;7.80;99.90
38458;DHT22;24239;48.058;10.486;2022-09-12T02:49:26;7.90;99.90
38458;DHT22;24239;48.058;10.486;2022-09-12T02:51:51;7.80;99.90
38458;DHT22;24239;48.058;10.486;2022-09-12T02:54:18;7.80;99.90
38458;DHT22;24239;48.058;10.486;2022-09-12T02:56:45;7.80;99.90
38458;DHT22;24239;48.058;10.486;2022-09-12T02:59:14;7.80;99.90
38458;DHT22;24239;48.058;10.486;2022-09-12T03:02:12;7.70;99.90
38458;DHT22;24239;48.058;10.486;2022-09-12T03:04:42;7.70;99.90
38458;DHT22;24239;48.058;10.486;2022-09-12T03:10:23;7.70;99.90
38458;DHT22;24239;48.058;10.486;2022-09-12T03:13:17;7.70;99.90
38458;DHT22;24239;48.058;10.486;2022-09-12T03:25:13;7.60;99.90
38458;DHT22;24239;48.058;10.486;2022-09-12T03:27:19;7.60;99.90
38458;DHT22;24239;48.058;10.486;2022-09-12T03:29:47;7.60;99.90
38458;DHT22;24239;48.058;10.486;2022-09-12T03:32:14;7.60;99.90
38458;DHT22;24239;48.058;10.486;2022-09-12T03:34:40;7.50;99.90
38458;DHT22;24239;48.058;10.486;2022-09-12T03:37:06;7.50;99.90
38458;DHT22;24239;48.058;10.486;2022-09-12T03:39:31;7.50;99.90
38458;DHT22;24239;48.058;10.486;2022-09-12T03:41:57;7.40;99.90
38458;DHT22;24239;48.058;10.486;2022-09-12T03:44:24;7.50;99.90
38458;DHT22;24239;48.058;10.486;2022-09-12T03:46:50;7.50;99.90
38458;DHT22;24239;48.058;10.486;2022-09-12T03:49:16;7.30;99.90
38458;DHT22;24239;48.058;10.486;2022-09-12T03:51:42;7.40;99.90
38458;DHT22;24239;48.058;10.486;2022-09-12T03:54:11;7.40;99.90
38458;DHT22;24239;48.058;10.486;2022-09-12T03:56:37;7.30;99.90
38458;DHT22;24239;48.058;10.486;2022-09-12T03:59:05;7.30;99.90
38458;DHT22;24239;48.058;10.486;2022-09-12T04:01:31;7.40;99.90
38458;DHT22;24239;48.058;10.486;2022-09-12T04:03:57;7.40;99.90
38458;DHT22;24239;48.058;10.486;2022-09-12T04:06:23;7.30;99.90
38458;DHT22;24239;48.058;10.486;2022-09-12T04:08:53;7.30;99.90
38458;DHT22;24239;48.058;10.486;2022-09-12T04:11:20;7.20;99.90
38458;DHT22;24239;48.058;10.486;2022-09-12T04:13:49;7.30;99.90
38458;DHT22;24239;48.058;10.486;2022-09-12T04:16:15;7.30;99.90
38458;DHT22;24239;48.058;10.486;2022-09-12T04:18:45;7.20;99.90
38458;DHT22;24239;48.058;10.486;2022-09-12T04:21:19;7.30;99.90
38458;DHT22;24239;48.058;10.486;2022-09-12T04:23:46;7.40;99.90
38458;DHT22;24239;48.058;10.486;2022-09-12T04:26:12;7.30;99.90
38458;DHT22;24239;48.058;10.486;2022-09-12T04:28:39;7.30;99.90
38458;DHT22;24239;48.058;10.486;2022-09-12T04:31:08;7.30;99.90
38458;DHT22;24239;48.058;10.486;2022-09-12T04:33:35;7.20;99.90
38458;DHT22;24239;48.058;10.486;2022-09-12T04:36:12;7.20;99.90
38458;DHT22;24239;48.058;10.486;2022-09-12T04:38:46;7.20;99.90
38458;DHT22;24239;48.058;10.486;2022-09-12T04:43:41;7.20;99.90
38458;DHT22;24239;48.058;10.486;2022-09-12T04:46:09;7.10;99.90
38458;DHT22;24239;48.058;10.486;2022-09-12T04:48:35;7.10;99.90
38458;DHT22;24239;48.058;10.486;2022-09-12T04:51:13;7.00;99.90
38458;DHT22;24239;48.058;10.486;2022-09-12T04:53:40;7.10;99.90
38458;DHT22;24239;48.058;10.486;2022-09-12T04:56:08;7.00;99.90
38458;DHT22;24239;48.058;10.486;2022-09-12T04:58:36;7.00;99.90
38458;DHT22;24239;48.058;10.486;2022-09-12T05:01:11;7.10;99.90
38458;DHT22;24239;48.058;10.486;2022-09-12T05:03:38;7.10;99.90
38458;DHT22;24239;48.058;10.486;2022-09-12T05:06:06;7.10;99.90
38458;DHT22;24239;48.058;10.486;2022-09-12T05:08:33;7.10;99.90
38458;DHT22;24239;48.058;10.486;2022-09-12T05:11:04;7.20;99.90
38458;DHT22;24239;48.058;10.486;2022-09-12T05:13:31;7.20;99.90
38458;DHT22;24239;48.058;10.486;2022-09-12T05:15:59;7.20;99.90
38458;DHT22;24239;48.058;10.486;2022-09-12T05:18:25;7.20;99.90
38458;DHT22;24239;48.058;10.486;2022-09-12T05:20:52;7.20;99.90
38458;DHT22;24239;48.058;10.486;2022-09-12T05:23:17;7.40;99.90
38458;DHT22;24239;48.058;10.486;2022-09-12T05:25:54;7.20;99.90
38458;DHT22;24239;48.058;10.486;2022-09-12T05:28:20;7.20;99.90
38458;DHT22;24239;48.058;10.486;2022-09-12T05:30:47;7.40;99.90
38458;DHT22;24239;48.058;10.486;2022-09-12T05:33:14;7.40;99.90
38458;DHT22;24239;48.058;10.486;2022-09-12T05:35:40;7.50;99.90
38458;DHT22;24239;48.058;10.486;2022-09-12T05:38:07;7.60;99.90
38458;DHT22;24239;48.058;10.486;2022-09-12T05:40:33;7.80;99.90
38458;DHT22;24239;48.058;10.486;2022-09-12T05:42:59;7.90;99.90
38458;DHT22;24239;48.058;10.486;2022-09-12T05:45:25;7.90;99.90
38458;DHT22;24239;48.058;10.486;2022-09-12T05:47:52;8.00;99.90
38458;DHT22;24239;48.058;10.486;2022-09-12T05:50:21;8.20;99.90
38458;DHT22;24239;48.058;10.486;2022-09-12T05:52:47;8.30;99.90
38458;DHT22;24239;48.058;10.486;2022-09-12T05:55:12;8.30;99.90
38458;DHT22;24239;48.058;10.486;2022-09-12T05:57:38;8.30;99.90
38458;DHT22;24239;48.058;10.486;2022-09-12T06:00:05;8.30;99.90
38458;DHT22;24239;48.058;10.486;2022-09-12T06:02:34;8.30;99.90
38458;DHT22;24239;48.058;10.486;2022-09-12T06:05:00;8.30;99.90
38458;DHT22;24239;48.058;10.486;2022-09-12T06:07:26;8.40;99.90
38458;DHT22;24239;48.058;10.486;2022-09-12T06:09:55;8.40;99.90
38458;DHT22;24239;48.058;10.486;2022-09-12T06:12:20;8.50;99.90
38458;DHT22;24239;48.058;10.486;2022-09-12T06:14:46;8.50;99.90
38458;DHT22;24239;48.058;10.486;2022-09-12T06:17:12;8.60;99.90
38458;DHT22;24239;48.058;10.486;2022-09-12T06:19:38;8.70;99.90
38458;DHT22;24239;48.058;10.486;2022-09-12T06:22:03;8.60;99.90
38458;DHT22;24239;48.058;10.486;2022-09-12T06:24:29;8.70;99.90
38458;DHT22;24239;48.058;10.486;2022-09-12T06:26:55;8.80;99.90
38458;DHT22;24239;48.058;10.486;2022-09-12T06:29:21;8.80;99.90
38458;DHT22;24239;48.058;10.486;2022-09-12T06:31:46;9.00;99.90
38458;DHT22;24239;48.058;10.486;2022-09-12T06:34:14;9.10;99.90
38458;DHT22;24239;48.058;10.486;2022-09-12T06:36:46;9.10;99.90
38458;DHT22;24239;48.058;10.486;2022-09-12T06:39:14;9.20;99.90
38458;DHT22;24239;48.058;10.486;2022-09-12T06:41:40;9.30;99.90
38458;DHT22;24239;48.058;10.486;2022-09-12T06:44:06;9.50;99.90
38458;DHT22;24239;48.058;10.486;2022-09-12T06:46:34;9.60;99.90
38458;DHT22;24239;48.058;10.486;2022-09-12T06:49:06;9.70;99.90
38458;DHT22;24239;48.058;10.486;2022-09-12T06:51:33;9.70;99.90
38458;DHT22;24239;48.058;10.486;2022-09-12T06:54:01;9.80;99.90
38458;DHT22;24239;48.058;10.486;2022-09-12T06:56:27;10.00;99.90
38458;DHT22;24239;48.058;10.486;2022-09-12T06:58:55;10.10;99.90
38458;DHT22;24239;48.058;10.486;2022-09-12T07:01:26;10.10;99.90
38458;DHT22;24239;48.058;10.486;2022-09-12T07:03:54;10.20;99.90
38458;DHT22;24239;48.058;10.486;2022-09-12T07:06:22;10.20;99.90
38458;DHT22;24239;48.058;10.486;2022-09-12T07:08:49;10.30;99.90
38458;DHT22;24239;48.058;10.486;2022-09-12T07:11:20;10.50;99.90
38458;DHT22;24239;48.058;10.486;2022-09-12T07:13:51;10.70;99.90
38458;DHT22;24239;48.058;10.486;2022-09-12T07:16:18;10.70;99.90
38458;DHT22;24239;48.058;10.486;2022-09-12T07:18:48;10.80;99.90
38458;DHT22;24239;48.058;10.486;2022-09-12T07:21:14;11.00;99.90
38458;DHT22;24239;48.058;10.486;2022-09-12T07:23:41;11.10;99.90
38458;DHT22;24239;48.058;10.486;2022-09-12T07:26:09;11.20;99.90
38458;DHT22;24239;48.058;10.486;2022-09-12T07:28:35;11.40;99.90
38458;DHT22;24239;48.058;10.486;2022-09-12T07:31:06;11.30;99.90
38458;DHT22;24239;48.058;10.486;2022-09-12T07:33:33;11.50;99.90
38458;DHT22;24239;48.058;10.486;2022-09-12T07:36:04;11.60;99.90
38458;DHT22;24239;48.058;10.486;2022-09-12T07:38:30;11.80;99.90
38458;DHT22;24239;48.058;10.486;2022-09-12T07:40:59;12.00;99.90
38458;DHT22;24239;48.058;10.486;2022-09-12T07:43:26;12.10;99.90
38458;DHT22;24239;48.058;10.486;2022-09-12T07:45:58;12.10;99.90
38458;DHT22;24239;48.058;10.486;2022-09-12T07:48:24;12.20;99.90
38458;DHT22;24239;48.058;10.486;2022-09-12T07:51:07;12.30;99.90
38458;DHT22;24239;48.058;10.486;2022-09-12T07:53:38;12.40;99.90
38458;DHT22;24239;48.058;10.486;2022-09-12T07:56:06;12.50;99.90
38458;DHT22;24239;48.058;10.486;2022-09-12T07:58:33;12.60;99.90
38458;DHT22;24239;48.058;10.486;2022-09-12T08:03:28;12.80;99.90
38458;DHT22;24239;48.058;10.486;2022-09-12T08:05:54;12.90;99.90
38458;DHT22;24239;48.058;10.486;2022-09-12T08:08:20;13.00;99.90
38458;DHT22;24239;48.058;10.486;2022-09-12T08:10:48;13.10;99.90
38458;DHT22;24239;48.058;10.486;2022-09-12T08:13:16;13.20;99.90
38458;DHT22;24239;48.058;10.486;2022-09-12T08:15:42;13.30;99.90
38458;DHT22;24239;48.058;10.486;2022-09-12T08:18:07;13.40;99.90
38458;DHT22;24239;48.058;10.486;2022-09-12T08:20:33;13.60;99.90
38458;DHT22;24239;48.058;10.486;2022-09-12T08:22:59;13.70;99.90
38458;DHT22;24239;48.058;10.486;2022-09-12T08:25:25;13.80;99.90
38458;DHT22;24239;48.058;10.486;2022-09-12T08:27:53;13.90;99.90
38458;DHT22;24239;48.058;10.486;2022-09-12T08:30:20;14.00;99.90
38458;DHT22;24239;48.058;10.486;2022-09-12T08:32:46;14.00;99.90
38458;DHT22;24239;48.058;10.486;2022-09-12T08:35:11;14.00;99.90
38458;DHT22;24239;48.058;10.486;2022-09-12T08:37:40;14.10;99.90
38458;DHT22;24239;48.058;10.486;2022-09-12T08:40:10;14.30;99.90
38458;DHT22;24239;48.058;10.486;2022-09-12T08:43:05;14.50;99.90
38458;DHT22;24239;48.058;10.486;2022-09-12T08:45:45;14.60;99.90
38458;DHT22;24239;48.058;10.486;2022-09-12T08:48:15;14.80;99.90
38458;DHT22;24239;48.058;10.486;2022-09-12T08:50:41;14.70;99.90
38458;DHT22;24239;48.058;10.486;2022-09-12T08:53:13;14.80;99.90
38458;DHT22;24239;48.058;10.486;2022-09-12T08:58:19;15.10;99.90
38458;DHT22;24239;48.058;10.486;2022-09-12T09:10:17;15.70;99.90
38458;DHT22;24239;48.058;10.486;2022-09-12T09:15:20;16.00;99.90
38458;DHT22;24239;48.058;10.486;2022-09-12T09:20:58;16.20;99.90
38458;DHT22;24239;48.058;10.486;2022-09-12T09:23:32;16.30;99.90
38458;DHT22;24239;48.058;10.486;2022-09-12T09:31:17;16.50;99.90
38458;DHT22;24239;48.058;10.486;2022-09-12T09:33:46;16.60;99.90
38458;DHT22;24239;48.058;10.486;2022-09-12T09:39:05;16.80;99.90
38458;DHT22;24239;48.058;10.486;2022-09-12T09:44:35;16.80;99.90
38458;DHT22;24239;48.058;10.486;2022-09-12T09:47:01;16.80;99.90
38458;DHT22;24239;48.058;10.486;2022-09-12T09:49:30;17.00;99.90
38458;DHT22;24239;48.058;10.486;2022-09-12T09:51:58;17.00;99.90
38458;DHT22;24239;48.058;10.486;2022-09-12T09:54:27;17.10;99.90
38458;DHT22;24239;48.058;10.486;2022-09-12T09:56:56;17.10;99.90
38458;DHT22;24239;48.058;10.486;2022-09-12T09:59:32;17.20;99.90
38458;DHT22;24239;48.058;10.486;2022-09-12T10:04:52;17.30;99.90
38458;DHT22;24239;48.058;10.486;2022-09-12T10:07:20;17.50;99.90
38458;DHT22;24239;48.058;10.486;2022-09-12T10:10:16;17.60;99.90
38458;DHT22;24239;48.058;10.486;2022-09-12T10:12:43;17.70;99.90
38458;DHT22;24239;48.058;10.486;2022-09-12T10:15:18;17.70;99.90
38458;DHT22;24239;48.058;10.486;2022-09-12T10:17:45;17.80;99.90
38458;DHT22;24239;48.058;10.486;2022-09-12T10:23:14;17.70;99.90
38458;DHT22;24239;48.058;10.486;2022-09-12T10:25:59;17.80;99.90
38458;DHT22;24239;48.058;10.486;2022-09-12T10:28:34;17.90;99.90
38458;DHT22;24239;48.058;10.486;2022-09-12T10:31:02;18.00;99.90
38458;DHT22;24239;48.058;10.486;2022-09-12T10:33:29;18.00;99.90
38458;DHT22;24239;48.058;10.486;2022-09-12T10:36:02;18.10;99.90
38458;DHT22;24239;48.058;10.486;2022-09-12T10:38:31;18.10;99.90
38458;DHT22;24239;48.058;10.486;2022-09-12T10:41:04;18.30;99.90
38458;DHT22;24239;48.058;10.486;2022-09-12T10:43:39;18.30;99.90
38458;DHT22;24239;48.058;10.486;2022-09-12T10:46:21;18.30;99.90
38458;DHT22;24239;48.058;10.486;2022-09-12T10:48:49;18.30;99.90
38458;DHT22;24239;48.058;10.486;2022-09-12T10:51:26;18.40;99.90
38458;DHT22;24239;48.058;10.486;2022-09-12T10:54:02;18.50;99.90
38458;DHT22;24239;48.058;10.486;2022-09-12T10:56:38;18.60;99.90
38458;DHT22;24239;48.058;10.486;2022-09-12T11:01:55;18.80;99.90
38458;DHT22;24239;48.058;10.486;2022-09-12T11:07:37;18.70;99.90
38458;DHT22;24239;48.058;10.486;2022-09-12T11:10:19;18.80;99.90
38458;DHT22;24239;48.058;10.486;2022-09-12T11:35:29;19.40;99.90
38458;DHT22;24239;48.058;10.486;2022-09-12T11:38:26;19.50;99.90
38458;DHT22;24239;48.058;10.486;2022-09-12T11:40:59;19.50;99.90
38458;DHT22;24239;48.058;10.486;2022-09-12T11:48:52;19.70;99.90
38458;DHT22;24239;48.058;10.486;2022-09-12T11:51:37;19.70;99.90
38458;DHT22;24239;48.058;10.486;2022-09-12T11:59:53;19.90;99.90
38458;DHT22;24239;48.058;10.486;2022-09-12T12:02:28;19.90;99.90
38458;DHT22;24239;48.058;10.486;2022-09-12T12:11:04;19.90;99.90
38458;DHT22;24239;48.058;10.486;2022-09-12T12:18:42;20.20;99.90
38458;DHT22;24239;48.058;10.486;2022-09-12T12:29:12;20.20;99.90
38458;DHT22;24239;48.058;10.486;2022-09-12T12:34:39;20.20;99.90
38458;DHT22;24239;48.058;10.486;2022-09-12T12:40:20;20.30;99.90
38458;DHT22;24239;48.058;10.486;2022-09-12T12:47:51;20.40;99.90
38458;DHT22;24239;48.058;10.486;2022-09-12T12:55:15;20.40;99.90
38458;DHT22;24239;48.058;10.486;2022-09-12T12:57:48;20.40;99.90
38458;DHT22;24239;48.058;10.486;2022-09-12T13:02:54;20.50;99.90
38458;DHT22;24239;48.058;10.486;2022-09-12T13:05:26;20.60;99.90
38458;DHT22;24239;48.058;10.486;2022-09-12T13:07:57;20.60;99.70
38458;DHT22;24239;48.058;10.486;2022-09-12T13:10:26;20.60;99.90
38458;DHT22;24239;48.058;10.486;2022-09-12T13:12:55;20.60;99.90
38458;DHT22;24239;48.058;10.486;2022-09-12T13:15:46;20.70;99.90
38458;DHT22;24239;48.058;10.486;2022-09-12T13:18:20;20.60;99.90
38458;DHT22;24239;48.058;10.486;2022-09-12T13:21:11;20.70;99.90
38458;DHT22;24239;48.058;10.486;2022-09-12T13:23:37;20.80;99.90
38458;DHT22;24239;48.058;10.486;2022-09-12T13:26:22;20.80;99.60
38458;DHT22;24239;48.058;10.486;2022-09-12T13:28:49;20.90;99.70
38458;DHT22;24239;48.058;10.486;2022-09-12T13:31:32;20.90;99.90
38458;DHT22;24239;48.058;10.486;2022-09-12T13:34:00;20.80;99.90
38458;DHT22;24239;48.058;10.486;2022-09-12T13:42:34;20.80;99.90
38458;DHT22;24239;48.058;10.486;2022-09-12T13:47:44;20.80;99.90
38458;DHT22;24239;48.058;10.486;2022-09-12T13:50:17;20.80;99.90
38458;DHT22;24239;48.058;10.486;2022-09-12T13:52:47;20.90;99.90
38458;DHT22;24239;48.058;10.486;2022-09-12T13:55:28;20.90;99.80
38458;DHT22;24239;48.058;10.486;2022-09-12T13:58:14;20.80;99.90
38458;DHT22;24239;48.058;10.486;2022-09-12T14:00:40;20.80;99.90
38458;DHT22;24239;48.058;10.486;2022-09-12T14:03:25;20.80;99.60
38458;DHT22;24239;48.058;10.486;2022-09-12T14:06:09;20.70;99.70
38458;DHT22;24239;48.058;10.486;2022-09-12T14:08:40;20.80;99.50
38458;DHT22;24239;48.058;10.486;2022-09-12T14:11:14;20.80;99.90
38458;DHT22;24239;48.058;10.486;2022-09-12T14:13:43;20.80;99.80
38458;DHT22;24239;48.058;10.486;2022-09-12T14:16:13;20.80;99.70
38458;DHT22;24239;48.058;10.486;2022-09-12T14:18:41;20.90;99.80
38458;DHT22;24239;48.058;10.486;2022-09-12T14:21:35;20.90;99.90
38458;DHT22;24239;48.058;10.486;2022-09-12T14:24:05;20.90;99.90
38458;DHT22;24239;48.058;10.486;2022-09-12T14:26:34;20.90;99.90
38458;DHT22;24239;48.058;10.486;2022-09-12T14:29:04;21.00;99.70
38458;DHT22;24239;48.058;10.486;2022-09-12T14:31:36;21.00;99.90
38458;DHT22;24239;48.058;10.486;2022-09-12T14:34:18;21.00;99.90
38458;DHT22;24239;48.058;10.486;2022-09-12T14:36:45;21.00;99.60
38458;DHT22;24239;48.058;10.486;2022-09-12T14:41:44;20.90;99.00
38458;DHT22;24239;48.058;10.486;2022-09-12T14:44:23;20.90;98.80
38458;DHT22;24239;48.058;10.486;2022-09-12T14:46:50;20.90;99.70
38458;DHT22;24239;48.058;10.486;2022-09-12T14:49:20;20.90;99.40
38458;DHT22;24239;48.058;10.486;2022-09-12T14:57:00;21.00;99.30
38458;DHT22;24239;48.058;10.486;2022-09-12T15:02:20;20.90;98.70
38458;DHT22;24239;48.058;10.486;2022-09-12T15:07:33;21.10;99.90
38458;DHT22;24239;48.058;10.486;2022-09-12T15:10:02;21.30;98.80
38458;DHT22;24239;48.058;10.486;2022-09-12T15:12:31;21.30;99.00
38458;DHT22;24239;48.058;10.486;2022-09-12T15:15:11;21.30;98.90
38458;DHT22;24239;48.058;10.486;2022-09-12T15:17:37;21.30;98.80
38458;DHT22;24239;48.058;10.486;2022-09-12T15:20:03;21.30;99.10
38458;DHT22;24239;48.058;10.486;2022-09-12T15:22:31;21.30;98.20
38458;DHT22;24239;48.058;10.486;2022-09-12T15:24:58;21.30;99.20
38458;DHT22;24239;48.058;10.486;2022-09-12T15:27:24;21.30;99.40
38458;DHT22;24239;48.058;10.486;2022-09-12T15:29:52;21.30;98.80
38458;DHT22;24239;48.058;10.486;2022-09-12T15:32:25;21.30;98.60
38458;DHT22;24239;48.058;10.486;2022-09-12T15:34:52;21.30;98.60
38458;DHT22;24239;48.058;10.486;2022-09-12T15:37:19;21.20;98.40
38458;DHT22;24239;48.058;10.486;2022-09-12T15:39:47;21.20;98.80
38458;DHT22;24239;48.058;10.486;2022-09-12T15:42:17;21.20;98.80
38458;DHT22;24239;48.058;10.486;2022-09-12T15:44:44;21.20;98.70
38458;DHT22;24239;48.058;10.486;2022-09-12T15:47:13;21.10;99.00
38458;DHT22;24239;48.058;10.486;2022-09-12T15:49:39;21.20;99.40
38458;DHT22;24239;48.058;10.486;2022-09-12T15:52:08;21.20;99.20
38458;DHT22;24239;48.058;10.486;2022-09-12T15:54:36;21.10;98.30
38458;DHT22;24239;48.058;10.486;2022-09-12T15:57:01;21.20;98.80
38458;DHT22;24239;48.058;10.486;2022-09-12T15:59:27;21.20;98.70
38458;DHT22;24239;48.058;10.486;2022-09-12T16:01:53;21.20;99.00
38458;DHT22;24239;48.058;10.486;2022-09-12T16:04:25;21.10;99.90
38458;DHT22;24239;48.058;10.486;2022-09-12T16:06:53;21.10;99.30
38458;DHT22;24239;48.058;10.486;2022-09-12T16:09:20;21.10;99.80
38458;DHT22;24239;48.058;10.486;2022-09-12T16:11:46;21.10;99.90
38458;DHT22;24239;48.058;10.486;2022-09-12T16:14:20;21.10;99.30
38458;DHT22;24239;48.058;10.486;2022-09-12T16:16:53;21.10;99.10
38458;DHT22;24239;48.058;10.486;2022-09-12T16:19:20;21.10;98.80
38458;DHT22;24239;48.058;10.486;2022-09-12T16:21:46;21.10;99.20
38458;DHT22;24239;48.058;10.486;2022-09-12T16:24:11;21.20;99.30
38458;DHT22;24239;48.058;10.486;2022-09-12T16:26:40;21.50;99.90
38458;DHT22;24239;48.058;10.486;2022-09-12T16:29:06;22.50;99.10
38458;DHT22;24239;48.058;10.486;2022-09-12T16:31:32;23.40;97.30
38458;DHT22;24239;48.058;10.486;2022-09-12T16:33:57;23.90;97.50
38458;DHT22;24239;48.058;10.486;2022-09-12T16:36:23;24.10;97.20
38458;DHT22;24239;48.058;10.486;2022-09-12T16:38:51;23.80;99.00
38458;DHT22;24239;48.058;10.486;2022-09-12T16:41:19;23.20;99.90
38458;DHT22;24239;48.058;10.486;2022-09-12T16:43:45;22.60;99.90
38458;DHT22;24239;48.058;10.486;2022-09-12T16:46:14;21.90;99.90
38458;DHT22;24239;48.058;10.486;2022-09-12T16:48:54;21.40;99.90
38458;DHT22;24239;48.058;10.486;2022-09-12T16:51:25;21.00;99.90
38458;DHT22;24239;48.058;10.486;2022-09-12T16:53:53;20.60;99.90
38458;DHT22;24239;48.058;10.486;2022-09-12T16:56:19;20.30;99.90
38458;DHT22;24239;48.058;10.486;2022-09-12T16:58:45;20.10;99.90
38458;DHT22;24239;48.058;10.486;2022-09-12T17:01:15;19.80;99.90
38458;DHT22;24239;48.058;10.486;2022-09-12T17:03:41;19.60;99.90
38458;DHT22;24239;48.058;10.486;2022-09-12T17:06:12;19.20;99.90
38458;DHT22;24239;48.058;10.486;2022-09-12T17:08:40;18.80;99.90
38458;DHT22;24239;48.058;10.486;2022-09-12T17:11:10;18.60;99.90
38458;DHT22;24239;48.058;10.486;2022-09-12T17:13:38;18.20;99.90
38458;DHT22;24239;48.058;10.486;2022-09-12T17:16:05;17.90;99.90
38458;DHT22;24239;48.058;10.486;2022-09-12T17:18:31;17.80;99.90
38458;DHT22;24239;48.058;10.486;2022-09-12T17:20:57;17.60;99.90
38458;DHT22;24239;48.058;10.486;2022-09-12T17:23:22;17.40;99.90
38458;DHT22;24239;48.058;10.486;2022-09-12T17:25:49;17.20;99.90
38458;DHT22;24239;48.058;10.486;2022-09-12T17:28:19;17.10;99.90
38458;DHT22;24239;48.058;10.486;2022-09-12T17:30:45;16.90;99.90
38458;DHT22;24239;48.058;10.486;2022-09-12T17:33:13;16.80;99.90
38458;DHT22;24239;48.058;10.486;2022-09-12T17:35:42;16.60;99.90
38458;DHT22;24239;48.058;10.486;2022-09-12T17:38:07;16.50;99.90
38458;DHT22;24239;48.058;10.486;2022-09-12T17:40:36;16.30;99.90
38458;DHT22;24239;48.058;10.486;2022-09-12T17:43:02;16.20;99.90
38458;DHT22;24239;48.058;10.486;2022-09-12T17:45:28;16.10;99.90
38458;DHT22;24239;48.058;10.486;2022-09-12T17:47:54;15.90;99.90
38458;DHT22;24239;48.058;10.486;2022-09-12T17:50:20;15.80;99.90
38458;DHT22;24239;48.058;10.486;2022-09-12T17:52:46;15.70;99.90
38458;DHT22;24239;48.058;10.486;2022-09-12T17:55:12;15.60;99.90
38458;DHT22;24239;48.058;10.486;2022-09-12T17:57:40;15.50;99.90
38458;DHT22;24239;48.058;10.486;2022-09-12T18:00:09;15.40;99.90
38458;DHT22;24239;48.058;10.486;2022-09-12T18:02:35;15.30;99.90
38458;DHT22;24239;48.058;10.486;2022-09-12T18:05:01;15.20;99.90
38458;DHT22;24239;48.058;10.486;2022-09-12T18:07:30;15.10;99.90
38458;DHT22;24239;48.058;10.486;2022-09-12T18:09:56;15.00;99.90
38458;DHT22;24239;48.058;10.486;2022-09-12T18:12:23;14.90;99.90
38458;DHT22;24239;48.058;10.486;2022-09-12T18:14:49;14.90;99.90
38458;DHT22;24239;48.058;10.486;2022-09-12T18:17:15;14.80;99.90
38458;DHT22;24239;48.058;10.486;2022-09-12T18:19:41;14.70;99.90
38458;DHT22;24239;48.058;10.486;2022-09-12T18:22:08;14.70;99.90
38458;DHT22;24239;48.058;10.486;2022-09-12T18:24:34;14.60;99.90
38458;DHT22;24239;48.058;10.486;2022-09-12T18:27:01;14.50;99.90
38458;DHT22;24239;48.058;10.486;2022-09-12T18:29:28;14.40;99.90
38458;DHT22;24239;48.058;10.486;2022-09-12T18:31:57;14.40;99.90
38458;DHT22;24239;48.058;10.486;2022-09-12T18:34:26;14.30;99.90
38458;DHT22;24239;48.058;10.486;2022-09-12T18:36:55;14.30;99.90
38458;DHT22;24239;48.058;10.486;2022-09-12T18:39:21;14.20;99.90
38458;DHT22;24239;48.058;10.486;2022-09-12T18:41:47;14.20;99.90
38458;DHT22;24239;48.058;10.486;2022-09-12T18:44:15;14.20;99.90